Flight Track Log - Related Links

Times and Time Zones

All times are in EST time to prevent confusion due to time zone crossing. See the UAL1169 flight status page for this flight to view local times or setup timezone preferences in your user account.

Time Position Orientation Groundspeed Altitude Reporting Facility
EST Latitude Longitude Course Direction KTS MPH feet Rate Location/Type
Wed 09:07:41 AM 29.9599 -95.3411 163° South 172 198 1,100  Level FlightAware ADS-B
Wed 09:07:50 AM 29.9491 -95.3382 167° South 169 194 1,500 2,000 Climbing FlightAware ADS-B
Wed 09:08:08 AM 29.9360 -95.3458 207° Southwest 194 223 2,000 1,565 Climbing FlightAware ADS-B
Wed 09:08:13 AM 29.9336 -95.3496 234° Southwest 202 232 2,100 1,000 Climbing FlightAware ADS-B
Wed 09:08:14 AM 29.9331 -95.3506 241° Southwest 206 237 2,100 1,500 Level FlightAware ADS-B
Wed 09:08:17 AM 29.9318 -95.3540 246° West 208 239 2,200 3,000 Climbing FlightAware ADS-B
Wed 09:08:20 AM 29.9308 -95.3578 253° West 213 245 2,400 3,000 Climbing FlightAware ADS-B
Wed 09:08:23 AM 29.9308 -95.3578 240° Southwest 216 249 2,500 1,500 Climbing FlightAware ADS-B
Wed 09:08:24 AM 29.9303 -95.3614 261° West 216 249 2,500 3,000 Level FlightAware ADS-B
Wed 09:08:27 AM 29.9302 -95.3652 268° West 218 251 2,700 3,600 Climbing FlightAware ADS-B
Wed 09:08:34 AM 29.9308 -95.3709 276° West 221 254 3,100 3,600 Climbing FlightAware ADS-B
Wed 09:08:42 AM 29.9328 -95.3827 281° West 220 253 3,600 3,000 Climbing FlightAware ADS-B
Wed 09:09:00 AM 29.9367 -95.4039 282° West 237 273 4,400 2,323 Climbing FlightAware ADS-B
Wed 09:09:13 AM 29.9399 -95.4212 282° West 254 292 4,800 2,000 Climbing FlightAware ADS-B
Wed 09:09:15 AM 29.9404 -95.4235 283° West 254 292 4,900 3,455 Climbing FlightAware ADS-B
Wed 09:09:46 AM 29.9488 -95.4648 283° West 263 303 6,700 3,447 Climbing FlightAware ADS-B
Wed 09:10:02 AM 29.9535 -95.4868 284° West 268 308 7,600 3,188 Climbing FlightAware ADS-B
Wed 09:10:18 AM 29.9582 -95.5087 284° West 272 313 8,400 3,290 Climbing FlightAware ADS-B
Wed 09:10:33 AM 29.9627 -95.5303 284° West 277 319 9,300 2,936 Climbing FlightAware ADS-B
Wed 09:11:05 AM 29.9718 -95.5743 283° West 295 339 10,700 2,226 Climbing FlightAware ADS-B
Wed 09:11:35 AM 29.9825 -95.6269 283° West 330 380 11,600 2,262 Climbing FlightAware ADS-B
Wed 09:12:06 AM 29.9933 -95.6803 283° West 341 392 13,000 2,852 Climbing FlightAware ADS-B
Wed 09:12:36 AM 30.0042 -95.7339 283° West 345 397 14,500 2,800 Climbing FlightAware ADS-B
Wed 09:13:06 AM 30.0154 -95.7891 283° West 354 407 15,800 2,500 Climbing FlightAware ADS-B
Wed 09:13:36 AM 30.0267 -95.8453 283° West 363 418 17,000 2,459 Climbing FlightAware ADS-B
Wed 09:14:07 AM 30.0384 -95.9028 283° West 371 427 18,300 2,459 Climbing FlightAware ADS-B
Wed 09:14:37 AM 30.0504 -95.9626 283° West 379 436 19,500 2,361 Climbing FlightAware ADS-B
Wed 09:15:08 AM 30.0624 -96.0220 283° West 383 441 20,700 2,316 Climbing FlightAware ADS-B
Wed 09:15:34 AM 30.0729 -96.0747 283° West 383 441 21,700 2,250 Climbing FlightAware ADS-B
Wed 09:16:04 AM 30.0824 -96.1355 280° West 387 445 22,800 2,000 Climbing FlightAware ADS-B
Wed 09:16:34 AM 30.0913 -96.1972 279° West 395 455 23,700 1,800 Climbing FlightAware ADS-B
Wed 09:17:04 AM 30.1007 -96.2599 280° West 401 461 24,600 1,900 Climbing FlightAware ADS-B
Wed 09:17:34 AM 30.1106 -96.3241 280° West 404 465 25,600 1,869 Climbing FlightAware ADS-B
Wed 09:18:05 AM 30.1206 -96.3886 280° West 409 471 26,500 1,770 Climbing FlightAware ADS-B
Wed 09:18:35 AM 30.1308 -96.4542 280° West 412 474 27,400 1,839 Climbing FlightAware ADS-B
Wed 09:19:07 AM 30.1413 -96.5224 280° West 414 476 28,400 1,742 Climbing FlightAware ADS-B
Wed 09:19:37 AM 30.1516 -96.5901 280° West 422 486 29,200 1,475 Climbing FlightAware ADS-B
Wed 09:20:08 AM 30.1624 -96.6580 280° West 428 493 29,900 1,475 Climbing FlightAware ADS-B
Wed 09:20:38 AM 30.1756 -96.7263 283° West 432 497 30,700 1,826 Climbing FlightAware ADS-B
Wed 09:20:54 AM 30.1822 -96.7570 284° West 430 495 31,300 2,200 Climbing FlightAware ADS-B
Wed 09:21:08 AM 30.1902 -96.7934 284° West 429 494 31,800 1,818 Climbing FlightAware ADS-B
Wed 09:21:27 AM 30.1997 -96.8349 285° West 428 493 32,300 1,742 Climbing FlightAware ADS-B
Wed 09:21:39 AM 30.2056 -96.8605 285° West 427 491 32,700 2,000 Climbing FlightAware ADS-B
Wed 09:22:09 AM 30.2208 -96.9261 285° West 421 484 33,700 1,833 Climbing FlightAware ADS-B
Wed 09:22:15 AM 30.2238 -96.9386 285° West 421 484 33,800 1,600 Climbing FlightAware ADS-B
Wed 09:22:39 AM 30.2359 -96.9915 285° West 419 482 34,500 1,846 Climbing FlightAware ADS-B
Wed 09:22:54 AM 30.2433 -97.0238 285° West 416 479 35,000 2,000 Climbing FlightAware ADS-B
Wed 09:23:09 AM 30.2507 -97.0561 285° West 411 473 35,500 1,742 Climbing FlightAware ADS-B
Wed 09:23:25 AM 30.2572 -97.0850 285° West 410 472 35,900 1,355 Climbing FlightAware ADS-B
Wed 09:23:40 AM 30.2654 -97.1214 285° West 410 472 36,200 1,200 Climbing FlightAware ADS-B
Wed 09:24:05 AM 30.2772 -97.1743 284° West 409 471 36,700 1,400 Climbing FlightAware ADS-B
Wed 09:24:10 AM 30.2795 -97.1848 284° West 409 471 36,900 1,400 Climbing FlightAware ADS-B
Wed 09:24:35 AM 30.2907 -97.2350 285° West 407 468 37,400 1,200 Climbing FlightAware ADS-B
Wed 09:24:40 AM 30.2936 -97.2480 284° West 407 468 37,500 1,029 Climbing FlightAware ADS-B
Wed 09:25:10 AM 30.3078 -97.3118 284° West 406 467 38,000 833 Climbing FlightAware ADS-B
Wed 09:25:16 AM 30.3104 -97.3235 284° West 406 467 38,000  Level FlightAware ADS-B
Wed 09:25:41 AM 30.3222 -97.3767 284° West 405 466 38,000  Level FlightAware ADS-B
Wed 09:25:56 AM 30.3288 -97.4064 284° West 405 466 38,000  Level FlightAware ADS-B
Wed 09:26:12 AM 30.3363 -97.4403 284° West 405 466 38,000  Level FlightAware ADS-B
Wed 09:26:26 AM 30.3428 -97.4700 284° West 405 466 38,000  Level FlightAware ADS-B
Wed 09:26:32 AM 30.3456 -97.4826 284° West 405 466 38,000  Level FlightAware ADS-B
Wed 09:26:42 AM 30.3503 -97.5039 284° West 405 466 38,000  Level FlightAware ADS-B
Wed 09:26:56 AM 30.3565 -97.5320 284° West 404 465 38,000  Level FlightAware ADS-B
Wed 09:27:07 AM 30.3620 -97.5570 284° West 403 464 38,000  Level FlightAware ADS-B
Wed 09:27:13 AM 30.3643 -97.5674 284° West 403 464 38,000  Level FlightAware ADS-B
Wed 09:27:26 AM 30.3706 -97.5958 284° West 402 463 38,000  Level FlightAware ADS-B
Wed 09:27:38 AM 30.3761 -97.6207 284° West 401 461 38,000  Level FlightAware ADS-B
Wed 09:27:43 AM 30.3783 -97.6312 284° West 401 461 38,000  Level FlightAware ADS-B
Wed 09:28:06 AM 30.3883 -97.6768 284° West 400 460 38,000  Level FlightAware ADS-B
Wed 09:28:09 AM 30.3899 -97.6839 284° West 400 460 38,000  Level FlightAware ADS-B
Wed 09:28:14 AM 30.3921 -97.6942 284° West 400 460 38,000  Level FlightAware ADS-B
Wed 09:28:46 AM 30.4067 -97.7609 284° West 400 460 38,000  Level FlightAware ADS-B
Wed 09:28:47 AM 30.4073 -97.7634 286° West 400 460 38,000  Level FlightAware ADS-B
Wed 09:29:16 AM 30.4205 -97.8242 284° West 399 459 38,000  Level FlightAware ADS-B
Wed 09:29:46 AM 30.4332 -97.8825 284° West 398 458 38,000  Level FlightAware ADS-B
Wed 09:29:47 AM 30.4342 -97.8871 284° West 398 458 38,000  Level FlightAware ADS-B
Wed 09:30:16 AM 30.4467 -97.9444 284° West 398 458 38,000  Level FlightAware ADS-B
Wed 09:30:17 AM 30.4479 -97.9502 284° West 398 458 38,000  Level FlightAware ADS-B
Wed 09:30:47 AM 30.4613 -98.0121 284° West 398 458 38,000  Level FlightAware ADS-B
Wed 09:30:56 AM 30.4652 -98.0299 284° West 398 458 38,000  Level FlightAware ADS-B
Wed 09:31:11 AM 30.4719 -98.0608 284° West 398 458 38,000  Level FlightAware ADS-B
Wed 09:31:35 AM 30.4824 -98.1095 284° West 398 458 38,000  Level FlightAware ADS-B
Wed 09:31:41 AM 30.4854 -98.1236 284° West 398 458 38,000  Level FlightAware ADS-B
Wed 09:31:45 AM 30.4869 -98.1305 284° West 397 457 38,000  Level FlightAware ADS-B
Wed 09:32:06 AM 30.4957 -98.1713 284° West 398 458 38,000  Level FlightAware ADS-B
Wed 09:32:12 AM 30.4989 -98.1866 284° West 398 458 38,000  Level FlightAware ADS-B
Wed 09:32:15 AM 30.5004 -98.1932 285° West 397 457 38,000  Level FlightAware ADS-B
Wed 09:32:46 AM 30.5135 -98.2546 284° West 397 457 38,000  Level FlightAware ADS-B
Wed 09:32:55 AM 30.5180 -98.2756 284° West 397 457 38,000  Level FlightAware ADS-B
Wed 09:33:16 AM 30.5271 -98.3181 284° West 397 457 38,000  Level FlightAware ADS-B
Wed 09:33:32 AM 30.5342 -98.3510 284° West 397 457 38,000  Level FlightAware ADS-B
Wed 09:33:55 AM 30.5443 -98.3987 284° West 397 457 38,000  Level FlightAware ADS-B
Wed 09:34:25 AM 30.5575 -98.4610 284° West 398 458 38,000  Level FlightAware ADS-B
Wed 09:35:06 AM 30.5752 -98.5443 284° West 396 456 38,000  Level FlightAware ADS-B
Wed 09:36:07 AM 30.6020 -98.6710 284° West 397 457 38,000  Level FlightAware ADS-B
Wed 09:36:44 AM 30.6181 -98.7478 284° West 397 457 38,000  Level FlightAware ADS-B
Wed 09:37:16 AM 30.6319 -98.8135 284° West 397 457 38,000  Level FlightAware ADS-B
Wed 09:37:46 AM 30.6450 -98.8750 284° West 398 458 38,000  Level FlightAware ADS-B
Wed 09:38:06 AM 30.6523 -98.9112 283° West 399 459 38,000  Level FlightAware ADS-B
Wed 09:38:36 AM 30.6664 -98.9790 284° West 400 460 38,000  Level FlightAware ADS-B
Wed 09:39:07 AM 30.6796 -99.0424 284° West 400 460 38,000  Level FlightAware ADS-B
Wed 09:39:37 AM 30.6926 -99.1052 284° West 399 459 38,000  Level FlightAware ADS-B
Wed 09:40:47 AM 30.7230 -99.2526 284° West 400 460 38,000  Level FlightAware ADS-B
Wed 09:41:48 AM 30.7490 -99.3780 284° West 396 456 38,000  Level FlightAware ADS-B
Wed 09:42:28 AM 30.7650 -99.4600 283° West 395 455 38,000  Level FlightAware ADS-B
Wed 09:43:04 AM 30.7810 -99.5350 284° West 394 453 38,000  Level FlightAware ADS-B
Wed 09:43:40 AM 30.7960 -99.6090 283° West 393 452 38,000  Level FlightAware ADS-B
Wed 09:44:06 AM 30.8067 -99.6633 283° West 392 451 38,000  Level FlightAware ADS-B
Wed 09:44:46 AM 30.8096 -99.6773 283° West 392 451 38,000  Level FlightAware ADS-B
Wed 09:45:56 AM 30.8520 -99.8870 283° West 387 445 38,000  Level FlightAware ADS-B
Wed 09:46:30 AM 30.8650 -99.9570 282° West 386 444 38,000  Level FlightAware ADS-B
Wed 09:47:32 AM 30.8900 -100.0820 283° West 385 443 38,000  Level FlightAware ADS-B
Wed 09:48:05 AM 30.9030 -100.1450 284° West 385 443 38,000  Level FlightAware ADS-B
Wed 09:48:45 AM 30.9190 -100.2270 283° West 385 443 38,000  Level FlightAware ADS-B
Wed 09:49:26 AM 30.9350 -100.3110 283° West 385 443 38,000  Level FlightAware ADS-B
Wed 09:49:53 AM 30.9460 -100.3650 283° West 385 443 38,000  Level FlightAware ADS-B
Wed 09:51:04 AM 30.9740 -100.5090 283° West 385 443 38,000  Level FlightAware ADS-B
Wed 09:51:48 AM 30.9910 -100.5990 282° West 384 442 38,000  Level FlightAware ADS-B
Wed 09:52:24 AM 31.0050 -100.6710 283° West 383 441 38,000  Level FlightAware ADS-B
Wed 09:53:08 AM 31.0220 -100.7580 283° West 384 442 38,000  Level FlightAware ADS-B
Wed 09:54:00 AM 31.0420 -100.8630 283° West 384 442 38,000  Level FlightAware ADS-B
Wed 09:54:40 AM 31.0580 -100.9450 283° West 384 442 38,000  Level FlightAware ADS-B
Wed 09:55:18 AM 31.0720 -101.0200 282° West 384 442 38,000  Level FlightAware ADS-B
Wed 09:56:02 AM 31.0890 -101.1100 282° West 384 442 38,000  Level FlightAware ADS-B
Wed 09:56:33 AM 31.1010 -101.1710 283° West 383 441 38,000  Level FlightAware ADS-B
Wed 09:57:10 AM 31.1150 -101.2470 282° West 383 441 38,000  Level FlightAware ADS-B
Wed 09:58:19 AM 31.1410 -101.3880 282° West 383 441 38,000  Level FlightAware ADS-B
Wed 09:58:54 AM 31.1540 -101.4560 283° West 383 441 38,000  Level FlightAware ADS-B
Wed 09:59:43 AM 31.1730 -101.5570 282° West 382 440 38,000  Level FlightAware ADS-B
Wed 10:00:15 AM 31.1840 -101.6200 282° West 382 440 38,000  Level FlightAware ADS-B
Wed 10:00:51 AM 31.1970 -101.6920 282° West 382 440 38,000  Level FlightAware ADS-B
Wed 10:01:42 AM 31.2170 -101.7960 283° West 380 437 38,000  Level FlightAware ADS-B
Wed 10:02:20 AM 31.2300 -101.8710 281° West 380 437 38,000  Level FlightAware ADS-B
Wed 10:03:09 AM 31.2480 -101.9700 282° West 380 437 38,000  Level FlightAware ADS-B
Wed 10:03:43 AM 31.2610 -102.0390 282° West 380 437 38,000  Level FlightAware ADS-B
Wed 10:04:19 AM 31.2740 -102.1100 282° West 379 436 38,000  Level FlightAware ADS-B
Wed 10:04:57 AM 31.2880 -102.1860 282° West 379 436 38,000  Level FlightAware ADS-B
Wed 10:05:27 AM 31.2980 -102.2440 281° West 377 434 38,000  Level FlightAware ADS-B
Wed 10:06:07 AM 31.3120 -102.3260 281° West 376 433 38,000  Level FlightAware ADS-B
Wed 10:07:03 AM 31.3320 -102.4350 282° West 374 430 38,000  Level FlightAware ADS-B
Wed 10:07:57 AM 31.3510 -102.5440 282° West 370 426 38,000  Level FlightAware ADS-B
Wed 10:08:29 AM 31.3600 -102.5970 281° West 370 426 38,000  Level FlightAware ADS-B
Wed 10:09:18 AM 31.3740 -102.6790 281° West 370 426 38,000  Level FlightAware ADS-B
Wed 10:09:54 AM 31.3840 -102.7390 281° West 370 426 38,000  Level FlightAware ADS-B
Wed 10:10:30 AM 31.3940 -102.8000 281° West 370 426 38,000  Level FlightAware ADS-B
Wed 10:11:06 AM 31.4040 -102.8600 281° West 370 426 38,000  Level FlightAware ADS-B
Wed 10:11:50 AM 31.4160 -102.9330 281° West 370 426 38,000  Level FlightAware ADS-B
Wed 10:12:27 AM 31.4260 -102.9950 281° West 370 426 38,000  Level FlightAware ADS-B
Wed 10:13:15 AM 31.4390 -103.0760 281° West 370 426 38,000  Level FlightAware ADS-B
Wed 10:13:51 AM 31.4490 -103.1360 281° West 370 426 38,000  Level FlightAware ADS-B
Wed 10:14:39 AM 31.4630 -103.2160 282° West 370 426 38,000  Level FlightAware ADS-B
Wed 10:15:27 AM 31.4760 -103.2970 281° West 370 426 38,000  Level FlightAware ADS-B
Wed 10:16:05 AM 31.4870 -103.3600 282° West 370 426 38,000  Level FlightAware ADS-B
Wed 10:16:40 AM 31.4960 -103.4190 280° West 370 426 38,000  Level FlightAware ADS-B
Wed 10:17:16 AM 31.5060 -103.4790 281° West 370 426 38,000  Level FlightAware ADS-B
Wed 10:17:52 AM 31.5160 -103.5400 281° West 370 426 38,000  Level FlightAware ADS-B
Wed 10:18:28 AM 31.5672 -103.7628 281° West 372 428 38,000  Level Albuquerque Center
Wed 10:23:48 AM 31.6960 -104.4020 281° West 380 437 38,000  Level FlightAware ADS-B
Wed 10:24:23 AM 31.7090 -104.4730 282° West 382 440 38,000  Level FlightAware ADS-B
Wed 10:24:54 AM 31.7210 -104.5340 283° West 383 441 38,000  Level FlightAware ADS-B
Wed 10:25:24 AM 31.7330 -104.5960 283° West 385 443 38,000  Level FlightAware ADS-B
Wed 10:25:52 AM 31.7440 -104.6530 283° West 386 444 38,000  Level FlightAware ADS-B
Wed 10:26:40 AM 31.7630 -104.7520 283° West 387 445 38,000  Level FlightAware ADS-B
Wed 10:27:23 AM 31.7780 -104.8300 283° West 388 447 38,000  Level FlightAware ADS-B
Wed 10:27:59 AM 31.7890 -104.8940 281° West 388 447 38,000  Level FlightAware ADS-B
Wed 10:28:35 AM 31.8000 -104.9570 282° West 388 447 38,000  Level FlightAware ADS-B
Wed 10:29:15 AM 31.8220 -105.0610 284° West 388 447 38,000  Level FlightAware ADS-B
Wed 10:29:51 AM 31.8330 -105.1250 281° West 388 447 38,000  Level FlightAware ADS-B
Wed 10:30:27 AM 31.8450 -105.1880 283° West 388 447 38,000  Level FlightAware ADS-B
Wed 10:31:15 AM 31.8600 -105.2720 282° West 388 447 38,000  Level FlightAware ADS-B
Wed 10:31:51 AM 31.8710 -105.3350 282° West 388 447 38,000  Level FlightAware ADS-B
Wed 10:32:27 AM 31.8830 -105.3990 282° West 388 447 38,000  Level FlightAware ADS-B
Wed 10:33:03 AM 31.8940 -105.4620 282° West 388 447 38,000  Level FlightAware ADS-B
Wed 10:33:39 AM 31.9060 -105.5250 283° West 388 447 38,000  Level FlightAware ADS-B
Wed 10:34:15 AM 31.9170 -105.5890 281° West 388 447 38,000  Level FlightAware ADS-B
Wed 10:34:52 AM 31.9290 -105.6540 282° West 388 447 38,000  Level FlightAware ADS-B
Wed 10:35:28 AM 31.9400 -105.7170 282° West 388 447 38,000  Level FlightAware ADS-B
Wed 10:36:04 AM 31.9510 -105.7800 282° West 388 447 38,000  Level FlightAware ADS-B
Wed 10:36:52 AM 31.9670 -105.8650 283° West 388 447 38,000  Level FlightAware ADS-B
Wed 10:38:05 AM 32.0320 -106.1990 283° West 408 470 38,000  Level FlightAware ADS-B
Wed 10:38:35 AM 32.0430 -106.2630 281° West 408 470 38,000  Level FlightAware ADS-B
Wed 10:39:11 AM 32.0570 -106.3380 282° West 405 466 38,000  Level FlightAware ADS-B
Wed 10:40:20 AM 32.0840 -106.4900 282° West 401 461 38,000  Level FlightAware ADS-B
Wed 10:41:00 AM 32.0990 -106.5750 282° West 399 459 38,000  Level FlightAware ADS-B
Wed 10:41:40 AM 32.1130 -106.6570 281° West 397 457 38,000  Level FlightAware ADS-B
Wed 10:42:18 AM 32.1260 -106.7300 282° West 395 455 38,000  Level FlightAware ADS-B
Wed 10:43:05 AM 32.1440 -106.8370 281° West 393 452 38,000  Level FlightAware ADS-B
Wed 10:43:40 AM 32.1570 -106.9090 282° West 392 451 38,000  Level FlightAware ADS-B
Wed 10:44:36 AM 32.1750 -107.0150 281° West 388 447 38,000  Level FlightAware ADS-B
Wed 10:45:45 AM 32.2010 -107.1670 281° West 386 444 38,000  Level FlightAware ADS-B
Wed 10:46:22 AM 32.2120 -107.2330 281° West 386 444 38,000  Level FlightAware ADS-B
Wed 10:46:59 AM 32.2230 -107.2980 281° West 386 444 38,000  Level FlightAware ADS-B
Wed 10:47:23 AM 32.2300 -107.3400 281° West 386 444 38,000  Level FlightAware ADS-B
Wed 10:47:59 AM 32.2400 -107.4030 281° West 386 444 38,000  Level FlightAware ADS-B
Wed 10:48:48 AM 32.2540 -107.4900 281° West 386 444 38,000  Level FlightAware ADS-B
Wed 10:49:25 AM 32.2650 -107.5550 281° West 386 444 38,000  Level FlightAware ADS-B
Wed 10:50:01 AM 32.2760 -107.6180 282° West 386 444 38,000  Level FlightAware ADS-B
Wed 10:50:38 AM 32.2860 -107.6840 280° West 386 444 38,000  Level FlightAware ADS-B
Wed 10:51:14 AM 32.2970 -107.7470 282° West 386 444 38,000  Level FlightAware ADS-B
Wed 10:51:51 AM 32.3070 -107.8120 280° West 386 444 38,000  Level FlightAware ADS-B
Wed 10:52:27 AM 32.3180 -107.8760 282° West 386 444 38,000  Level FlightAware ADS-B
Wed 10:53:04 AM 32.3290 -107.9410 281° West 386 444 38,000  Level FlightAware ADS-B
Wed 10:53:54 AM 32.3430 -108.0290 281° West 386 444 38,000  Level FlightAware ADS-B
Wed 10:54:31 AM 32.3540 -108.0950 281° West 386 444 38,000  Level FlightAware ADS-B
Wed 10:55:08 AM 32.3640 -108.1600 280° West 386 444 38,000  Level FlightAware ADS-B
Wed 10:56:25 AM 32.5000 -108.5190 294° West 421 484 38,000  Level FlightAware ADS-B
Wed 10:57:07 AM 32.5220 -108.6110 286° West 423 487 38,000  Level FlightAware ADS-B
Wed 10:57:45 AM 32.5430 -108.6970 286° West 423 487 38,000  Level FlightAware ADS-B
Wed 10:58:45 AM 32.5750 -108.8310 286° West 427 491 38,000  Level FlightAware ADS-B
Wed 10:59:27 AM 32.5970 -108.9250 286° West 428 493 38,000  Level FlightAware ADS-B
Wed 11:00:03 AM 32.6160 -109.0070 285° West 427 491 38,000  Level FlightAware ADS-B
Wed 11:00:41 AM 32.6370 -109.0920 286° West 427 491 38,000  Level FlightAware ADS-B
Wed 11:01:13 AM 32.6540 -109.1650 285° West 427 491 38,000  Level FlightAware ADS-B
Wed 11:01:46 AM 32.6710 -109.2380 285° West 426 490 38,000  Level FlightAware ADS-B
Wed 11:02:26 AM 32.6920 -109.3280 286° West 425 489 38,000  Level FlightAware ADS-B
Wed 11:03:03 AM 32.7150 -109.4100 288° West 426 490 38,000  Level FlightAware ADS-B
Wed 11:03:41 AM 32.7410 -109.4950 290° West 424 488 38,000  Level FlightAware ADS-B
Wed 11:04:36 AM 32.7750 -109.6130 289° West 423 487 38,000  Level FlightAware ADS-B
Wed 11:05:05 AM 32.7930 -109.6770 289° West 421 484 38,000  Level FlightAware ADS-B
Wed 11:06:13 AM 32.8350 -109.8260 289° West 418 481 38,000  Level FlightAware ADS-B
Wed 11:06:47 AM 32.8560 -109.9010 288° West 417 480 38,000  Level FlightAware ADS-B
Wed 11:07:27 AM 32.8810 -109.9880 289° West 416 479 38,000  Level FlightAware ADS-B
Wed 11:07:59 AM 32.9000 -110.0580 288° West 415 478 38,000  Level FlightAware ADS-B
Wed 11:08:37 AM 32.9230 -110.1400 288° West 414 476 38,000  Level FlightAware ADS-B
Wed 11:09:25 AM 32.9520 -110.2430 289° West 412 474 38,000  Level FlightAware ADS-B
Wed 11:09:57 AM 32.9710 -110.3120 288° West 410 472 38,000  Level FlightAware ADS-B
Wed 11:10:27 AM 32.9890 -110.3740 289° West 409 471 38,000  Level FlightAware ADS-B
Wed 11:11:07 AM 33.0130 -110.4600 288° West 407 468 38,000  Level FlightAware ADS-B
Wed 11:11:35 AM 33.0290 -110.5190 288° West 406 467 38,000  Level FlightAware ADS-B
Wed 11:12:23 AM 33.0570 -110.6210 288° West 403 464 38,000  Level FlightAware ADS-B
Wed 11:13:17 AM 33.0880 -110.7340 288° West 401 461 38,000  Level FlightAware ADS-B
Wed 11:13:53 AM 33.1090 -110.8100 288° West 400 460 38,000  Level FlightAware ADS-B
Wed 11:14:32 AM 33.1310 -110.8910 288° West 398 458 38,000  Level FlightAware ADS-B
Wed 11:15:05 AM 33.1500 -110.9600 288° West 398 458 38,000  Level FlightAware ADS-B
Wed 11:15:39 AM 33.1700 -111.0330 288° West 397 457 38,000  Level FlightAware ADS-B
Wed 11:16:11 AM 33.1880 -111.0970 289° West 396 456 38,000  Level FlightAware ADS-B
Wed 11:16:43 AM 33.2050 -111.1640 287° West 397 457 38,000  Level FlightAware ADS-B
Wed 11:17:17 AM 33.2250 -111.2350 289° West 395 455 38,000  Level FlightAware ADS-B
Wed 11:18:02 AM 33.2500 -111.3280 288° West 394 453 38,000  Level FlightAware ADS-B
Wed 11:18:36 AM 33.2680 -111.3960 288° West 394 453 38,000  Level FlightAware ADS-B
Wed 11:19:19 AM 33.2930 -111.4890 288° West 394 453 38,000  Level FlightAware ADS-B
Wed 11:20:16 AM 33.3240 -111.6050 288° West 394 453 38,000  Level FlightAware ADS-B
Wed 11:21:37 AM 33.3700 -111.7750 288° West 396 456 38,000  Level FlightAware ADS-B
Wed 11:21:54 AM 33.3917 -111.8578 287° West 398 458 38,000  Level FlightAware ADS-B
Wed 11:22:25 AM 33.4105 -111.9290 288° West 400 460 38,000  Level FlightAware ADS-B
Wed 11:22:55 AM 33.4120 -111.9340 289° West 398 458 38,000  Level FlightAware ADS-B
Wed 11:23:04 AM 33.4322 -112.0114 287° West 400 460 38,000  Level FlightAware ADS-B
Wed 11:23:57 AM 33.4470 -112.0660 288° West 401 461 38,000  Level FlightAware ADS-B
Wed 11:24:39 AM 33.4710 -112.1570 288° West 402 463 38,000  Level FlightAware ADS-B
Wed 11:24:57 AM 33.4953 -112.2512 287° West 404 465 38,000  Level FlightAware ADS-B
Wed 11:25:41 AM 33.5050 -112.2870 288° West 404 465 38,000  Level FlightAware ADS-B
Wed 11:26:19 AM 33.5260 -112.3700 287° West 405 466 38,000  Level FlightAware ADS-B
Wed 11:26:59 AM 33.5480 -112.4550 287° West 406 467 38,000  Level FlightAware ADS-B
Wed 11:27:31 AM 33.5660 -112.5240 287° West 407 468 38,000  Level FlightAware ADS-B
Wed 11:27:48 AM 33.5904 -112.6178 287° West 407 468 38,000  Level FlightAware ADS-B
Wed 11:28:33 AM 33.6151 -112.7140 287° West 408 470 38,000  Level FlightAware ADS-B
Wed 11:29:40 AM 33.6380 -112.8030 287° West 407 468 38,000  Level FlightAware ADS-B
Wed 11:30:38 AM 33.6700 -112.9270 287° West 407 468 38,000  Level FlightAware ADS-B
Wed 11:31:15 AM 33.6900 -113.0060 287° West 406 467 38,000  Level FlightAware ADS-B
Wed 11:31:48 AM 33.7080 -113.0780 287° West 406 467 38,000  Level FlightAware ADS-B
Wed 11:32:32 AM 33.7320 -113.1730 287° West 405 466 38,000  Level FlightAware ADS-B
Wed 11:33:04 AM 33.7490 -113.2390 287° West 405 466 38,000  Level FlightAware ADS-B
Wed 11:33:36 AM 33.7670 -113.3100 287° West 404 465 38,000  Level FlightAware ADS-B
Wed 11:34:20 AM 33.7900 -113.4040 286° West 404 465 38,000  Level FlightAware ADS-B
Wed 11:34:52 AM 33.8060 -113.4700 286° West 404 465 38,000  Level FlightAware ADS-B
Wed 11:35:29 AM 33.8270 -113.5510 287° West 404 465 38,000  Level FlightAware ADS-B
Wed 11:36:05 AM 33.8460 -113.6300 286° West 404 465 38,000  Level FlightAware ADS-B
Wed 11:36:40 AM 33.8650 -113.7040 287° West 405 466 38,000  Level FlightAware ADS-B
Wed 11:37:36 AM 33.8950 -113.8270 286° West 405 466 38,000  Level FlightAware ADS-B
Wed 11:38:04 AM 33.9100 -113.8860 287° West 405 466 38,000  Level FlightAware ADS-B
Wed 11:39:08 AM 33.9440 -114.0260 286° West 406 467 38,000  Level FlightAware ADS-B
Wed 11:39:48 AM 33.9590 -114.1120 282° West 406 467 38,000  Level FlightAware ADS-B
Wed 11:40:22 AM 33.9680 -114.1890 278° West 405 466 38,000  Level FlightAware ADS-B
Wed 11:41:03 AM 33.9770 -114.2810 277° West 406 467 38,000  Level FlightAware ADS-B
Wed 11:41:40 AM 33.9840 -114.3650 276° West 406 467 38,000  Level FlightAware ADS-B
Wed 11:42:12 AM 33.9900 -114.4320 276° West 407 468 38,000  Level FlightAware ADS-B
Wed 11:42:48 AM 33.9980 -114.5130 277° West 405 466 38,000  Level FlightAware ADS-B
Wed 11:43:29 AM 34.0070 -114.6030 277° West 407 468 38,000  Level FlightAware ADS-B
Wed 11:44:09 AM 34.0150 -114.6950 276° West 406 467 38,000  Level FlightAware ADS-B
Wed 11:44:43 AM 34.0230 -114.7730 277° West 405 466 38,000  Level FlightAware ADS-B
Wed 11:45:18 AM 34.0300 -114.8540 276° West 405 466 38,000  Level FlightAware ADS-B
Wed 11:46:18 AM 34.0420 -114.9840 276° West 405 466 38,000  Level FlightAware ADS-B
Wed 11:46:53 AM 34.0500 -115.0650 277° West 405 466 38,000  Level FlightAware ADS-B
Wed 11:47:23 AM 34.0550 -115.1270 276° West 405 466 38,000  Level FlightAware ADS-B
Wed 11:48:03 AM 34.0640 -115.2210 277° West 405 466 38,000  Level FlightAware ADS-B
Wed 11:49:13 AM 34.0780 -115.3770 276° West 405 466 38,000  Level FlightAware ADS-B
Wed 11:49:43 AM 34.0840 -115.4470 276° West 404 465 38,000  Level FlightAware ADS-B
Wed 11:50:13 AM 34.0900 -115.5160 276° West 404 465 38,000  Level FlightAware ADS-B
Wed 11:51:18 AM 34.1030 -115.6610 276° West 404 465 38,000  Level FlightAware ADS-B
Wed 11:51:48 AM 34.1080 -115.7210 276° West 403 464 38,000  Level FlightAware ADS-B
Wed 11:52:03 AM 34.1100 -115.7580 274° West 405 466 38,000 -636 Level FlightAware ADS-B
Wed 11:52:54 AM 34.0970 -115.8800 263° West 410 472 37,300 -1,697 Descending FlightAware ADS-B
Wed 11:53:42 AM 34.0813 -115.9803 259° West 420 483 35,200 -2,692 Descending FlightAware ADS-B
Wed 11:54:12 AM 34.0708 -116.0497 260° West 424 488 33,800 -2,656 Descending FlightAware ADS-B
Wed 11:54:43 AM 34.0589 -116.1283 260° West 426 490 32,500 -2,382 Descending FlightAware ADS-B
Wed 11:55:20 AM 34.0464 -116.2117 260° West 418 481 31,100 -2,057 Descending FlightAware ADS-B
Wed 11:55:53 AM 34.0355 -116.2847 260° West 412 474 30,100 -1,973 Descending FlightAware ADS-B
Wed 11:56:33 AM 34.0226 -116.3705 260° West 405 466 28,700 -2,057 Descending FlightAware ADS-B
Wed 11:57:03 AM 34.0131 -116.4325 260° West 399 459 27,700 -2,000 Descending FlightAware ADS-B
Wed 11:57:33 AM 34.0063 -116.4828 261° West 394 453 26,700 -1,967 Descending FlightAware ADS-B
Wed 11:58:04 AM 33.9979 -116.5770 264° West 395 455 25,700 -2,028 Descending FlightAware ADS-B
Wed 11:58:44 AM 33.9911 -116.6640 265° West 388 447 24,300 -2,083 Descending FlightAware ADS-B
Wed 11:59:16 AM 33.9856 -116.7316 264° West 387 445 23,200 -1,920 Descending FlightAware ADS-B
Wed 11:59:34 AM 33.9827 -116.7676 264° West 386 444 22,700 -2,000 Descending FlightAware ADS-B
Wed 11:59:55 AM 33.9791 -116.8117 264° West 383 441 21,900 -2,192 Descending FlightAware ADS-B
Wed 12:00:26 PM 33.9734 -116.8815 264° West 378 435 20,800 -2,083 Descending FlightAware ADS-B
Wed 12:01:07 PM 33.9665 -116.9654 264° West 374 430 19,400 -2,113 Descending FlightAware ADS-B
Wed 12:01:37 PM 33.9613 -117.0272 264° West 374 430 18,300 -2,149 Descending FlightAware ADS-B
Wed 12:02:14 PM 33.9562 -117.0889 264° West 369 425 17,000 -1,791 Descending FlightAware ADS-B
Wed 12:02:44 PM 33.9497 -117.1650 264° West 359 413 16,300 -1,125 Descending FlightAware ADS-B
Wed 12:03:18 PM 33.9452 -117.2181 264° West 353 406 15,800 -1,012 Descending FlightAware ADS-B
Wed 12:04:07 PM 33.9361 -117.3262 264° West 354 407 14,900 -1,304 Descending FlightAware ADS-B
Wed 12:04:27 PM 33.9343 -117.3477 264° West 349 402 14,300 -1,318 Descending FlightAware ADS-B
Wed 12:09:03 PM 34.0115 -117.8062 282° West 289 333 8,400 -1,329 Descending FlightAware ADS-B
Wed 12:09:43 PM 34.0050 -117.8730 263° West 291 335 7,300 -1,477 Descending FlightAware ADS-B
Wed 12:10:08 PM 34.0010 -117.9140 263° West 290 334 6,800 -1,313 Descending FlightAware ADS-B
Wed 12:10:47 PM 33.9940 -117.9770 262° West 284 327 5,900 -1,200 Descending FlightAware ADS-B
Wed 12:11:23 PM 33.9900 -118.0280 265° West 247 284 5,300 -875 Descending FlightAware ADS-B
Wed 12:11:35 PM 33.9880 -118.0450 262° West 235 270 5,200 -857 Descending FlightAware ADS-B
Wed 12:12:33 PM 33.9810 -118.1140 263° West 207 238 4,300 -865 Descending FlightAware ADS-B
Wed 12:13:19 PM 33.9760 -118.1650 263° West 200 230 3,700 -878 Descending FlightAware ADS-B
Wed 12:13:55 PM 33.9720 -118.2050 263° West 198 228 3,100 -952 Descending FlightAware ADS-B
Wed 12:14:22 PM 33.9690 -118.2300 262° West 192 221 2,700 -1,091 Descending FlightAware ADS-B
Wed 12:14:50 PM 33.9660 -118.2640 264° West 189 217 2,100 -1,083 Descending FlightAware ADS-B
Wed 12:15:34 PM 33.9620 -118.3080 264° West 173 199 1,400 -892 Descending FlightAware ADS-B
Wed 12:16:04 PM 33.9590 -118.3340 262° West 145 167 1,000 -738 Descending FlightAware ADS-B
Wed 12:16:39 PM 33.9560 -118.3620 263° West 149 171 600 -716 Descending FlightAware ADS-B
Wed 12:17:11 PM 33.9540 -118.3850 264° West 137 158 200 -750 Descending FlightAware ADS-B
Wed 12:17:35 PM 33.9520 -118.4040 263° West 142 163 -500 Descending FlightAware ADS-B
Wed 12:18:24 PM 33.9490 -118.4250 260° West 139 160  Level FlightAware ADS-B
Wed 12:19:00 PM 33.9470 -118.4280 231° Southwest 139 160  Level FlightAware ADS-B

Login

Don't have an account? Register now (free) for customized features, flight alerts, and more!